Time;durP1;ratioP1;P1;durP2;ratioP2;P2;SDS_P1;SDS_P2;PMS_P1;PMS_P2;Temp;Humidity;BMP_temperature;BMP_pressure;BME280_temperature;BME280_humidity;BME280_pressure;Samples;Min_cycle;Max_cycle;Signal;HPM_P1;HPM_P2
2023/09/02 00:01:49;;;;;;;8.10;5.60;;;;;;;13.99;84.88;99510.81;431880;1267;331669;-65
2023/09/02 00:11:55;;;;;;;8.30;5.80;;;;;;;13.98;85.44;99512.42;432246;1267;139281;-65
2023/09/02 00:22:01;;;;;;;5.30;4.70;;;;;;;13.95;85.60;99512.71;432100;1269;139412;-66
2023/09/02 00:32:07;;;;;;;6.80;5.60;;;;;;;13.89;85.99;99513.34;431923;1268;140695;-66
2023/09/02 00:42:17;;;;;;;8.30;5.60;;;;;;;13.83;86.55;99513.21;432117;1266;140417;-67
2023/09/02 00:52:22;;;;;;;6.60;5.80;;;;;;;13.78;87.02;99508.58;432565;1270;140901;-66
2023/09/02 01:02:29;;;;;;;7.20;5.50;;;;;;;13.74;87.25;99508.53;432788;1267;141428;-65
2023/09/02 01:12:36;;;;;;;6.70;5.40;;;;;;;13.62;87.34;99516.27;432916;1267;139344;-67
2023/09/02 01:22:59;;;;;;;8.30;5.50;;;;;;;13.40;87.77;99522.20;432644;1267;139767;-66
2023/09/02 01:33:08;;;;;;;8.00;6.20;;;;;;;13.17;88.41;99529.35;432071;1268;139269;-66
2023/09/02 01:43:20;;;;;;;6.40;5.40;;;;;;;12.96;88.86;99530.05;433063;1264;139397;-66
2023/09/02 01:53:28;;;;;;;8.80;5.90;;;;;;;12.78;89.10;99533.48;432644;1265;139208;-67
2023/09/02 02:03:38;;;;;;;7.10;6.30;;;;;;;12.66;89.92;99543.67;433283;1267;139798;-66
2023/09/02 02:13:45;;;;;;;6.90;5.60;;;;;;;12.59;90.70;99554.67;432514;1267;139153;-66
2023/09/02 02:23:51;;;;;;;8.90;6.60;;;;;;;12.50;91.44;99558.01;432455;1264;139203;-66
2023/09/02 02:33:57;;;;;;;6.00;5.20;;;;;;;12.34;91.44;99570.18;432826;1265;140325;-67
2023/09/02 02:44:03;;;;;;;8.30;5.90;;;;;;;12.17;92.02;99567.88;432641;1268;139632;-68
2023/09/02 02:54:09;;;;;;;6.30;5.50;;;;;;;11.99;92.26;99566.84;432119;1270;140597;-65
2023/09/02 03:04:15;;;;;;;5.90;5.30;;;;;;;11.76;92.29;99577.70;431850;1268;141260;-65
2023/09/02 03:14:21;;;;;;;5.20;4.40;;;;;;;11.57;92.56;99578.47;432170;1270;140935;-65
2023/09/02 03:24:27;;;;;;;7.10;5.70;;;;;;;11.39;92.94;99586.51;431982;1269;139306;-66
2023/09/02 03:34:33;;;;;;;9.80;5.50;;;;;;;11.29;94.67;99592.27;431858;1266;139363;-65
2023/09/02 03:44:38;;;;;;;14.20;5.80;;;;;;;11.16;94.97;99589.60;431893;1264;139859;-65
2023/09/02 03:54:44;;;;;;;7.40;4.80;;;;;;;11.00;94.86;99589.98;432195;1268;139486;-65
2023/09/02 04:04:50;;;;;;;9.40;6.00;;;;;;;10.91;95.11;99592.13;432414;1268;139369;-65
2023/09/02 04:14:56;;;;;;;9.10;5.80;;;;;;;10.94;95.88;99598.25;432167;1267;140567;-65
2023/09/02 04:25:02;;;;;;;10.20;6.10;;;;;;;11.08;96.33;99606.94;432213;1264;139178;-66
2023/09/02 04:35:09;;;;;;;11.80;5.70;;;;;;;11.38;96.83;99611.83;432156;1267;141237;-67
2023/09/02 04:45:15;;;;;;;6.00;4.90;;;;;;;11.82;96.76;99623.25;432114;1264;139498;-67
2023/09/02 04:55:21;;;;;;;6.90;6.20;;;;;;;12.35;96.50;99623.63;432449;1268;139047;-67
2023/09/02 05:05:29;;;;;;;10.40;6.50;;;;;;;13.08;96.78;99622.43;432336;1267;139165;-66
2023/09/02 05:15:36;;;;;;;7.90;6.30;;;;;;;13.95;95.99;99622.29;432161;1267;140625;-66
2023/09/02 05:25:42;;;;;;;5.00;4.30;;;;;;;15.97;98.21;99624.60;432108;1267;141113;-65
2023/09/02 05:35:48;;;;;;;5.50;5.00;;;;;;;21.80;96.31;99630.15;432740;1267;139579;-66
2023/09/02 05:45:54;;;;;;;5.60;5.20;;;;;;;26.81;85.63;99641.86;432109;1270;140931;-66
2023/09/02 05:56:00;;;;;;;9.80;5.90;;;;;;;31.71;74.49;99652.44;432191;1268;139239;-67
2023/09/02 06:06:12;;;;;;;6.60;5.30;;;;;;;35.77;63.20;99644.42;432226;1267;139792;-68
2023/09/02 06:16:17;;;;;;;6.30;5.30;;;;;;;38.60;49.39;99648.09;432295;1267;138994;-68
2023/09/02 06:26:25;;;;;;;8.00;5.50;;;;;;;40.59;41.07;99651.83;432024;1265;139155;-68
2023/09/02 06:36:31;;;;;;;6.40;5.60;;;;;;;42.65;36.60;99661.77;432617;1265;138824;-70
2023/09/02 06:46:38;;;;;;;5.90;5.30;;;;;;;43.78;32.43;99671.94;432310;1265;139004;-70
2023/09/02 06:56:45;;;;;;;8.30;5.80;;;;;;;44.33;29.68;99680.43;432584;1267;139662;-71
2023/09/02 07:06:50;;;;;;;5.50;4.50;;;;;;;46.13;28.20;99689.85;433145;1265;138848;-71
2023/09/02 07:16:56;;;;;;;5.40;3.60;;;;;;;48.05;26.15;99697.81;432945;1267;138962;-72
2023/09/02 07:27:02;;;;;;;4.30;3.90;;;;;;;49.02;24.03;99707.69;432297;1265;139046;-71
2023/09/02 07:37:08;;;;;;;5.40;4.10;;;;;;;49.08;22.49;99713.48;432404;1265;139612;-72
2023/09/02 07:47:14;;;;;;;3.90;3.60;;;;;;;47.94;22.09;99724.27;432271;1267;138659;-71
2023/09/02 07:57:20;;;;;;;4.80;4.20;;;;;;;48.42;22.01;99735.41;432149;1268;138554;-71
2023/09/02 08:07:25;;;;;;;3.90;3.50;;;;;;;49.60;21.06;99743.39;432187;1269;138523;-71
2023/09/02 08:17:35;;;;;;;3.80;3.50;;;;;;;50.89;20.16;99746.88;432121;1268;138624;-71
2023/09/02 08:27:46;;;;;;;3.00;2.50;;;;;;;51.06;19.55;99751.13;432107;1265;138817;-70
2023/09/02 08:37:52;;;;;;;2.90;2.50;;;;;;;48.97;19.08;99752.90;432430;1265;140044;-69
2023/09/02 08:48:02;;;;;;;4.70;3.10;;;;;;;42.52;21.10;99757.27;432342;1268;138466;-69
2023/09/02 08:58:08;;;;;;;4.20;3.10;;;;;;;38.13;24.10;99764.45;431963;1270;138759;-68
2023/09/02 09:08:15;;;;;;;3.70;2.80;;;;;;;35.21;26.47;99773.50;431844;1265;138861;-68
2023/09/02 09:18:21;;;;;;;3.10;2.60;;;;;;;33.07;29.02;99781.84;431541;1267;140240;-67
2023/09/02 09:28:26;;;;;;;3.90;2.70;;;;;;;31.50;30.60;99793.41;431944;1269;138523;-67
2023/09/02 09:38:40;;;;;;;4.40;3.10;;;;;;;29.63;32.63;99804.33;432109;1269;138600;-68
2023/09/02 09:48:49;;;;;;;3.80;2.60;;;;;;;28.66;34.53;99810.69;432332;1268;138736;-68
2023/09/02 09:58:55;;;;;;;3.50;2.50;;;;;;;27.88;36.12;99815.76;432469;1270;140547;-68
2023/09/02 10:09:01;;;;;;;3.40;2.90;;;;;;;27.17;37.12;99825.63;432201;1270;138628;-67
2023/09/02 10:19:06;;;;;;;3.10;2.10;;;;;;;26.93;38.26;99825.50;432325;1265;139061;-67
2023/09/02 10:29:14;;;;;;;3.90;2.00;;;;;;;26.76;38.48;99821.88;432077;1268;139359;-67
2023/09/02 10:39:35;;;;;;;4.30;2.20;;;;;;;26.14;39.10;99822.71;432249;1269;139374;-66
2023/09/02 10:49:42;;;;;;;2.30;2.00;;;;;;;25.44;39.57;99823.73;432191;1267;139336;-67
2023/09/02 10:59:47;;;;;;;3.30;2.40;;;;;;;25.07;40.79;99831.98;432613;1268;138407;-68
2023/09/02 11:09:55;;;;;;;3.90;2.40;;;;;;;25.11;41.54;99837.23;432506;1268;138613;-66
2023/09/02 11:20:02;;;;;;;2.60;1.90;;;;;;;25.15;41.87;99843.91;432355;1266;138949;-67
2023/09/02 11:30:16;;;;;;;3.00;2.70;;;;;;;25.12;41.51;99852.44;433136;1268;138483;-68
2023/09/02 11:40:25;;;;;;;2.10;1.70;;;;;;;24.70;42.28;99860.14;432328;1267;138994;-67
2023/09/02 11:50:31;;;;;;;2.80;2.30;;;;;;;24.57;43.21;99863.30;432854;1264;138699;-68
2023/09/02 12:00:43;;;;;;;4.80;2.20;;;;;;;24.64;43.75;99863.00;432409;1265;159319;-67
2023/09/02 12:10:49;;;;;;;3.10;2.80;;;;;;;24.36;43.81;99860.72;432314;1266;138510;-67
2023/09/02 12:20:59;;;;;;;2.30;2.00;;;;;;;24.21;43.73;99863.91;432581;1264;139010;-67
2023/09/02 12:31:06;;;;;;;3.00;2.60;;;;;;;23.78;43.90;99869.79;432407;1265;139136;-67
2023/09/02 12:41:12;;;;;;;3.50;2.30;;;;;;;23.44;45.12;99880.81;432983;1265;139720;-67
2023/09/02 12:51:28;;;;;;;3.10;2.20;;;;;;;23.62;46.27;99881.20;432459;1267;138812;-66
2023/09/02 13:01:35;;;;;;;5.30;2.70;;;;;;;23.99;46.03;99878.83;432820;1269;140381;-66
2023/09/02 13:11:40;;;;;;;3.50;3.20;;;;;;;23.90;46.48;99876.60;432837;1265;138604;-67
2023/09/02 13:21:46;;;;;;;3.90;2.80;;;;;;;23.86;46.25;99878.34;432155;1268;140074;-66
2023/09/02 13:31:53;;;;;;;4.60;2.30;;;;;;;23.75;46.19;99885.73;432188;1269;139151;-68
2023/09/02 13:41:59;;;;;;;3.30;2.70;;;;;;;23.95;46.23;99881.44;432376;1268;138889;-69
2023/09/02 13:52:06;;;;;;;2.90;2.70;;;;;;;24.10;45.55;99876.67;432133;1270;139695;-68
2023/09/02 14:02:17;;;;;;;3.00;2.00;;;;;;;23.99;45.43;99879.19;432471;1269;138551;-70
2023/09/02 14:12:29;;;;;;;4.70;3.00;;;;;;;23.74;45.84;99873.83;432963;1265;138877;-67
2023/09/02 14:22:34;;;;;;;4.20;2.40;;;;;;;23.81;46.24;99871.73;432938;1268;139205;-67
2023/09/02 14:32:40;;;;;;;2.70;2.50;;;;;;;23.82;46.52;99874.39;432629;1269;138756;-68
2023/09/02 14:42:46;;;;;;;3.40;2.60;;;;;;;23.85;46.64;99880.66;432467;1268;138638;-67
2023/09/02 14:52:52;;;;;;;3.50;2.40;;;;;;;23.75;45.79;99882.95;432252;1269;140206;-68
2023/09/02 15:03:00;;;;;;;3.60;2.70;;;;;;;23.43;45.94;99888.95;432355;1270;139426;-66
2023/09/02 15:13:06;;;;;;;3.50;3.10;;;;;;;23.04;46.87;99890.46;432332;1267;138458;-69
2023/09/02 15:23:12;;;;;;;5.60;3.20;;;;;;;22.77;47.68;99895.77;432480;1269;138594;-67
2023/09/02 15:33:20;;;;;;;3.10;2.10;;;;;;;22.54;48.68;99900.95;432410;1268;138742;-67
2023/09/02 15:43:26;;;;;;;6.60;2.80;;;;;;;22.28;49.83;99908.86;432827;1270;138641;-68
2023/09/02 15:53:33;;;;;;;5.60;3.70;;;;;;;22.11;50.41;99911.54;432583;1270;138942;-68
2023/09/02 16:03:39;;;;;;;3.10;2.30;;;;;;;21.99;50.35;99910.23;432127;1270;139666;-67
2023/09/02 16:13:45;;;;;;;5.50;2.80;;;;;;;21.78;51.06;99910.85;432986;1269;138642;-67
2023/09/02 16:23:53;;;;;;;7.10;3.00;;;;;;;21.47;52.48;99919.35;432397;1267;139525;-70
2023/09/02 16:33:59;;;;;;;5.90;3.30;;;;;;;21.10;54.00;99920.54;432322;1269;140131;-67
2023/09/02 16:44:07;;;;;;;4.20;3.10;;;;;;;20.75;55.65;99925.26;432271;1267;138795;-68
2023/09/02 16:54:14;;;;;;;6.20;3.20;;;;;;;20.46;56.98;99932.80;432430;1267;138618;-68
2023/09/02 17:04:20;;;;;;;5.20;3.50;;;;;;;20.09;58.50;99934.25;432607;1269;139112;-68
2023/09/02 17:14:26;;;;;;;6.00;3.30;;;;;;;19.70;59.59;99938.22;432082;1269;139578;-67
2023/09/02 17:24:32;;;;;;;8.40;4.50;;;;;;;19.27;60.92;99937.48;432351;1270;138699;-67
2023/09/02 17:34:38;;;;;;;6.80;4.00;;;;;;;18.81;62.28;99940.40;432170;1268;139279;-67
2023/09/02 17:44:47;;;;;;;7.10;4.50;;;;;;;18.42;63.55;99941.46;432098;1267;139633;-68
2023/09/02 17:54:53;;;;;;;13.30;8.00;;;;;;;18.21;65.05;99957.15;432353;1267;139330;-69
2023/09/02 18:05:01;;;;;;;8.50;4.50;;;;;;;18.12;66.48;99965.06;432258;1267;139623;-69
2023/09/02 18:15:10;;;;;;;14.00;6.40;;;;;;;17.92;67.37;99970.15;432419;1267;140539;-67
2023/09/02 18:25:16;;;;;;;10.40;6.50;;;;;;;17.63;68.20;99972.72;433105;1267;139392;-67
2023/09/02 18:35:22;;;;;;;12.50;6.50;;;;;;;17.38;69.23;99985.11;432252;1267;139555;-67
2023/09/02 18:45:28;;;;;;;15.80;10.70;;;;;;;17.10;70.43;99991.38;432454;1267;140367;-68
2023/09/02 18:55:34;;;;;;;14.90;8.70;;;;;;;16.80;71.51;99995.11;432569;1267;139875;-67
2023/09/02 19:05:40;;;;;;;10.10;7.00;;;;;;;16.58;72.36;100000.80;432503;1267;139644;-68
2023/09/02 19:15:46;;;;;;;13.30;8.50;;;;;;;16.46;73.38;100015.33;432418;1269;140082;-67
2023/09/02 19:25:52;;;;;;;10.30;7.50;;;;;;;16.42;74.28;100024.53;432276;1270;141256;-67
2023/09/02 19:35:58;;;;;;;9.60;6.80;;;;;;;16.42;75.08;100028.95;432728;1267;140571;-67
2023/09/02 19:46:07;;;;;;;11.50;9.20;;;;;;;16.38;75.66;100037.86;432499;1269;139296;-68
2023/09/02 19:56:13;;;;;;;12.30;11.10;;;;;;;16.37;76.24;100039.41;432456;1267;140068;-67
2023/09/02 20:06:19;;;;;;;9.70;8.80;;;;;;;16.38;76.84;100046.73;432609;1268;139613;-68
2023/09/02 20:16:25;;;;;;;10.10;8.50;;;;;;;16.38;77.41;100046.70;432363;1265;140099;-68
2023/09/02 20:26:31;;;;;;;11.90;8.70;;;;;;;16.35;78.21;100050.67;432460;1270;140380;-68
2023/09/02 20:36:37;;;;;;;15.00;9.70;;;;;;;16.29;78.75;100052.77;432477;1267;139523;-68
2023/09/02 20:46:42;;;;;;;12.10;10.00;;;;;;;16.12;79.08;100052.91;432197;1268;140401;-68
2023/09/02 20:56:48;;;;;;;15.70;12.00;;;;;;;15.88;79.67;100064.97;432855;1269;140654;-66
2023/09/02 21:06:54;;;;;;;17.10;11.90;;;;;;;15.66;80.16;100070.77;432282;1267;140529;-68
2023/09/02 21:17:00;;;;;;;15.50;12.30;;;;;;;15.44;80.86;100066.10;432100;1267;140861;-67
2023/09/02 21:27:07;;;;;;;14.60;12.10;;;;;;;15.19;81.34;100058.06;432831;1270;140348;-68
2023/09/02 21:37:12;;;;;;;13.30;11.50;;;;;;;15.04;82.20;100049.49;432936;1267;139844;-67
2023/09/02 21:47:18;;;;;;;16.30;12.30;;;;;;;14.93;82.84;100050.17;432091;1270;140870;-68
2023/09/02 21:57:24;;;;;;;12.40;11.00;;;;;;;14.84;83.67;100051.73;431964;1267;140788;-67
2023/09/02 22:07:30;;;;;;;15.10;11.40;;;;;;;14.69;83.84;100048.17;432230;1269;139838;-68
2023/09/02 22:17:36;;;;;;;15.40;11.50;;;;;;;14.49;84.21;100049.83;432139;1267;139856;-68
2023/09/02 22:27:42;;;;;;;12.30;11.00;;;;;;;14.31;84.70;100051.80;431932;1267;141479;-67
2023/09/02 22:37:48;;;;;;;16.10;10.90;;;;;;;14.20;85.21;100056.68;432297;1267;141384;-67
2023/09/02 22:47:59;;;;;;;12.30;11.10;;;;;;;14.23;86.37;100053.77;432681;1264;140704;-67
2023/09/02 22:58:06;;;;;;;15.30;10.90;;;;;;;14.31;86.66;100046.35;432631;1265;140283;-67
2023/09/02 23:08:12;;;;;;;12.10;10.80;;;;;;;14.31;86.95;100046.37;432392;1265;141202;-68
2023/09/02 23:18:18;;;;;;;12.70;11.20;;;;;;;14.22;87.25;100047.20;432408;1265;142381;-69
2023/09/02 23:28:24;;;;;;;14.80;11.30;;;;;;;14.03;87.51;100041.83;432361;1265;141324;-69
2023/09/02 23:38:30;;;;;;;15.80;13.90;;;;;;;13.91;88.44;100042.88;432501;1265;140765;-68
2023/09/02 23:48:39;;;;;;;17.60;12.90;;;;;;;13.90;89.01;100037.30;432895;1267;139640;-67
2023/09/02 23:58:45;;;;;;;13.50;10.90;;;;;;;13.82;88.72;100043.97;431742;1268;195360;-67
